createdAt,value
2023-05-19T00:00:34.692Z,14.2727
2023-05-19T00:01:35.777Z,14.2898
2023-05-19T00:02:37.289Z,14.2923
2023-05-19T00:03:38.728Z,14.3502
2023-05-19T00:04:40.141Z,14.3990
2023-05-19T00:05:41.514Z,14.4286
2023-05-19T00:06:42.959Z,14.3892
2023-05-19T00:07:44.355Z,14.2480
2023-05-19T00:08:45.886Z,14.2386
2023-05-19T00:09:47.269Z,14.3026
2023-05-19T00:10:48.643Z,14.3015
2023-05-19T00:11:50.032Z,14.3120
2023-05-19T00:12:53.725Z,14.3736
2023-05-19T00:13:52.906Z,14.4156
2023-05-19T00:14:54.417Z,14.3938
2023-05-19T00:15:55.773Z,14.3875
2023-05-19T00:16:57.286Z,14.2664
2023-05-19T00:17:58.724Z,14.2400
2023-05-19T00:19:00.164Z,14.2825
2023-05-19T00:20:01.416Z,14.2615
2023-05-19T00:21:02.890Z,14.2701
2023-05-19T00:22:04.281Z,14.2964
2023-05-19T00:23:05.738Z,14.3479
2023-05-19T00:24:07.219Z,14.3764
2023-05-19T00:25:08.644Z,14.3426
2023-05-19T00:26:09.984Z,14.2623
2023-05-19T00:27:11.396Z,14.2892
2023-05-19T00:28:12.741Z,14.2936
2023-05-19T00:29:14.307Z,14.2732
2023-05-19T00:30:15.680Z,14.3038
2023-05-19T00:31:17.215Z,14.3402
2023-05-19T00:32:18.650Z,14.3759
2023-05-19T00:33:19.961Z,14.3779
2023-05-19T00:34:21.426Z,14.2976
2023-05-19T00:35:22.856Z,14.2174
2023-05-19T00:36:24.146Z,14.2566
2023-05-19T00:37:25.673Z,14.2574
2023-05-19T00:38:27.170Z,14.2493
2023-05-19T00:39:28.512Z,14.2803
2023-05-19T00:40:30.106Z,14.3182
2023-05-19T00:41:31.420Z,14.3314
2023-05-19T00:42:32.792Z,14.3483
2023-05-19T00:43:34.270Z,14.3387
2023-05-19T00:44:35.604Z,14.3609
2023-05-19T00:45:37.151Z,14.3473
2023-05-19T00:46:38.574Z,14.2564
2023-05-19T00:47:39.968Z,14.2725
2023-05-19T00:48:41.342Z,14.3189
2023-05-19T00:49:42.796Z,14.3597
2023-05-19T00:50:44.220Z,14.3452
2023-05-19T00:51:45.586Z,14.2719
2023-05-19T00:52:46.988Z,14.2733
2023-05-19T00:53:48.587Z,14.2665
2023-05-19T00:54:49.886Z,14.2412
2023-05-19T00:55:51.389Z,14.2513
2023-05-19T00:56:52.796Z,14.2739
2023-05-19T00:57:54.201Z,14.3170
2023-05-19T00:58:55.654Z,14.3545
2023-05-19T00:59:57.064Z,14.3678
2023-05-19T01:00:58.601Z,14.2982
2023-05-19T01:01:59.924Z,14.2649
2023-05-19T01:03:01.371Z,14.2817
2023-05-19T01:04:02.868Z,14.2236
2023-05-19T01:05:04.174Z,14.1962
2023-05-19T01:06:05.542Z,14.2438
2023-05-19T01:07:07.013Z,14.2795
2023-05-19T01:08:08.468Z,14.3240
2023-05-19T01:09:09.847Z,14.3122
2023-05-19T01:10:11.250Z,14.3022
2023-05-19T01:11:12.723Z,14.2700
2023-05-19T01:12:14.122Z,14.2952
2023-05-19T01:13:15.621Z,14.2470
2023-05-19T01:14:16.880Z,14.1958
2023-05-19T01:15:18.419Z,14.2100
2023-05-19T01:16:19.888Z,14.2601
2023-05-19T01:17:21.250Z,14.3006
2023-05-19T01:18:22.643Z,14.3428
2023-05-19T01:19:24.137Z,14.3317
2023-05-19T01:20:25.485Z,14.3040
2023-05-19T01:21:27.028Z,14.3140
2023-05-19T01:22:28.357Z,14.2554
2023-05-19T01:23:29.793Z,14.1594
2023-05-19T01:24:31.195Z,14.1872
2023-05-19T01:25:32.656Z,14.2426
2023-05-19T01:26:34.059Z,14.2925
2023-05-19T01:27:50.302Z,14.3205
2023-05-19T01:28:36.895Z,14.3478
2023-05-19T01:29:38.291Z,14.3392
2023-05-19T01:30:39.810Z,14.3094
2023-05-19T01:31:41.310Z,14.2945
2023-05-19T01:32:42.651Z,14.2752
2023-05-19T01:33:44.020Z,14.2560
2023-05-19T01:34:45.480Z,14.2743
2023-05-19T01:35:46.814Z,14.3105
2023-05-19T01:36:48.298Z,14.3216
2023-05-19T01:37:49.690Z,14.3296
2023-05-19T01:38:51.195Z,14.3053
2023-05-19T01:39:52.605Z,14.2851
2023-05-19T01:40:54.043Z,14.2896
2023-05-19T01:41:55.514Z,14.2396
2023-05-19T01:42:57.866Z,14.2381
2023-05-19T01:43:58.268Z,14.2728
2023-05-19T01:44:59.643Z,14.2820
2023-05-19T01:46:01.149Z,14.2907
2023-05-19T01:47:02.593Z,14.3075
2023-05-19T01:48:04.007Z,14.2911
2023-05-19T01:49:05.439Z,14.2856
2023-05-19T01:50:06.809Z,14.2430
2023-05-19T01:51:08.288Z,14.2024
2023-05-19T01:52:09.733Z,14.2284
2023-05-19T01:53:11.150Z,14.2693
2023-05-19T01:54:12.559Z,14.3021
2023-05-19T01:55:14.061Z,14.3301
2023-05-19T01:56:15.378Z,14.3413
2023-05-19T01:57:16.849Z,14.3365
2023-05-19T01:58:18.203Z,14.3034
2023-05-19T01:59:19.643Z,14.2884
2023-05-19T02:00:21.406Z,14.2305
2023-05-19T02:01:22.470Z,14.2089
2023-05-19T02:02:24.014Z,14.2397
2023-05-19T02:03:25.397Z,14.2633
2023-05-19T02:04:26.917Z,14.2975
2023-05-19T02:05:28.209Z,14.3178
2023-05-19T02:06:29.623Z,14.3147
2023-05-19T02:07:30.983Z,14.3018
2023-05-19T02:08:32.474Z,14.3125
2023-05-19T02:09:33.918Z,14.2793
2023-05-19T02:10:35.338Z,14.2831
2023-05-19T02:11:36.721Z,14.3064
2023-05-19T02:12:38.266Z,14.3104
2023-05-19T02:13:39.564Z,14.3178
2023-05-19T02:14:41.045Z,14.3425
2023-05-19T02:15:42.539Z,14.3192
2023-05-19T02:16:43.821Z,14.3058
2023-05-19T02:17:45.366Z,14.3082
2023-05-19T02:18:46.714Z,14.2692
2023-05-19T02:19:48.171Z,14.1957
2023-05-19T02:20:49.548Z,14.2220
2023-05-19T02:21:50.990Z,14.2553
2023-05-19T02:22:52.375Z,14.2688
2023-05-19T02:23:53.869Z,14.3061
2023-05-19T02:24:55.288Z,14.3340
2023-05-19T02:25:56.800Z,14.3218
2023-05-19T02:26:58.083Z,14.2899
2023-05-19T02:27:59.679Z,14.2533
2023-05-19T02:29:01.097Z,14.2352
2023-05-19T02:30:02.530Z,14.2515
2023-05-19T02:31:03.921Z,14.2902
2023-05-19T02:32:05.494Z,14.3074
2023-05-19T02:33:06.856Z,14.3190
2023-05-19T02:34:08.207Z,14.2919
2023-05-19T02:35:09.649Z,14.2765
2023-05-19T02:36:11.009Z,14.2732
2023-05-19T02:37:12.456Z,14.2169
2023-05-19T02:38:13.911Z,14.2118
2023-05-19T02:39:15.260Z,14.2446
2023-05-19T02:40:16.640Z,14.2656
2023-05-19T02:41:18.107Z,14.2996
2023-05-19T02:42:19.486Z,14.3093
2023-05-19T02:43:21.033Z,14.3306
2023-05-19T02:44:22.468Z,14.3255
2023-05-19T02:45:23.805Z,14.3319
2023-05-19T02:46:25.309Z,14.3113
2023-05-19T02:47:26.712Z,14.3078
2023-05-19T02:48:28.281Z,14.3076
2023-05-19T02:49:29.559Z,14.3220
2023-05-19T02:50:31.215Z,14.3197
2023-05-19T02:51:32.456Z,14.3175
2023-05-19T02:52:33.910Z,14.3093
2023-05-19T02:53:35.286Z,14.2901
2023-05-19T02:54:36.685Z,14.2960
2023-05-19T02:55:38.112Z,14.2386
2023-05-19T02:56:39.578Z,14.2331
2023-05-19T02:57:41.017Z,14.2336
2023-05-19T02:58:42.480Z,14.2524
2023-05-19T02:59:43.868Z,14.2860
2023-05-19T03:00:45.313Z,14.2863
2023-05-19T03:01:46.722Z,14.2822
2023-05-19T03:02:48.216Z,14.2917
2023-05-19T03:03:49.676Z,14.2996
2023-05-19T03:04:51.010Z,14.2661
2023-05-19T03:05:52.471Z,14.2354
2023-05-19T03:06:53.826Z,14.2465
2023-05-19T03:07:55.322Z,14.2692
2023-05-19T03:08:57.266Z,14.2699
2023-05-19T03:09:58.141Z,14.2885
2023-05-19T03:10:59.553Z,14.2986
2023-05-19T03:12:00.993Z,14.3064
2023-05-19T03:13:02.404Z,14.2954
2023-05-19T03:14:03.874Z,14.2454
2023-05-19T03:15:05.252Z,14.2528
2023-05-19T03:16:06.782Z,14.2702
2023-05-19T03:17:08.328Z,14.2864
2023-05-19T03:18:09.629Z,14.2861
2023-05-19T03:19:11.023Z,14.3104
2023-05-19T03:20:12.534Z,14.3261
2023-05-19T03:21:13.792Z,14.3026
2023-05-19T03:22:15.236Z,14.2499
2023-05-19T03:23:16.629Z,14.2545
2023-05-19T03:24:18.250Z,14.2538
2023-05-19T03:25:19.443Z,14.2801
2023-05-19T03:26:20.953Z,14.2932
2023-05-19T03:27:22.379Z,14.3043
2023-05-19T03:28:23.794Z,14.3201
2023-05-19T03:29:25.262Z,14.2980
2023-05-19T03:30:26.695Z,14.2677
2023-05-19T03:31:28.066Z,14.2440
2023-05-19T03:32:29.590Z,14.1836
2023-05-19T03:33:31.084Z,14.1716
2023-05-19T03:34:32.377Z,14.1577
2023-05-19T03:35:33.764Z,14.2027
2023-05-19T03:36:35.192Z,14.2120
2023-05-19T03:37:36.612Z,14.2114
2023-05-19T03:38:37.969Z,14.2292
2023-05-19T03:39:40.385Z,14.2526
2023-05-19T03:40:40.951Z,14.2772
2023-05-19T03:41:42.268Z,14.2001
2023-05-19T03:42:43.751Z,14.2086
2023-05-19T03:43:45.140Z,14.2118
2023-05-19T03:44:46.610Z,14.2280
2023-05-19T03:45:48.053Z,14.2556
2023-05-19T03:46:49.488Z,14.2641
2023-05-19T03:47:50.902Z,14.2576
2023-05-19T03:48:52.381Z,14.2744
2023-05-19T03:49:53.736Z,14.2122
2023-05-19T03:50:55.270Z,14.1830
2023-05-19T03:51:56.537Z,14.1970
2023-05-19T03:52:58.100Z,14.2105
2023-05-19T03:53:59.403Z,14.2356
2023-05-19T03:55:00.901Z,14.1692
2023-05-19T03:56:02.283Z,14.1790
2023-05-19T03:57:03.722Z,14.0576
2023-05-19T03:58:05.037Z,13.9890
2023-05-19T03:59:06.542Z,14.0694
2023-05-19T04:00:08.007Z,14.1264
2023-05-19T04:01:09.433Z,14.1517
2023-05-19T04:02:10.929Z,14.1665
2023-05-19T04:03:12.270Z,14.1589
2023-05-19T04:04:13.726Z,14.1670
2023-05-19T04:05:15.141Z,14.2041
2023-05-19T04:06:16.404Z,14.2129
2023-05-19T04:07:17.930Z,14.2204
2023-05-19T04:08:19.334Z,14.2275
2023-05-19T04:09:20.718Z,14.2534
2023-05-19T04:10:22.305Z,14.2805
2023-05-19T04:11:23.572Z,14.2856
2023-05-19T04:12:25.079Z,14.2975
2023-05-19T04:13:26.395Z,14.3102
2023-05-19T04:14:27.896Z,14.3206
2023-05-19T04:15:29.366Z,14.3230
2023-05-19T04:16:30.929Z,14.3362
2023-05-19T04:17:32.223Z,14.3478
2023-05-19T04:18:33.593Z,14.3580
2023-05-19T04:19:34.981Z,14.3728
2023-05-19T04:20:36.455Z,14.3849
2023-05-19T04:21:37.820Z,14.3930
2023-05-19T04:22:39.270Z,14.4042
2023-05-19T04:23:40.777Z,14.4244
2023-05-19T04:24:42.166Z,14.4328
2023-05-19T04:25:43.534Z,14.4586
2023-05-19T04:26:45.014Z,14.4747
2023-05-19T04:27:46.453Z,14.4762
2023-05-19T04:28:47.860Z,14.4812
2023-05-19T04:29:49.208Z,14.4977
2023-05-19T04:30:50.742Z,14.5263
2023-05-19T04:31:52.062Z,14.5614
2023-05-19T04:32:53.572Z,14.5763
2023-05-19T04:33:55.010Z,14.5926
2023-05-19T04:34:56.365Z,14.6180
2023-05-19T04:35:57.836Z,14.6414
2023-05-19T04:36:59.284Z,14.6680
2023-05-19T04:38:00.577Z,14.6884
2023-05-19T04:39:02.115Z,14.7108
2023-05-19T04:40:03.568Z,14.7222
2023-05-19T04:41:04.990Z,14.7306
2023-05-19T04:42:06.299Z,14.7493
2023-05-19T04:43:07.887Z,14.7621
2023-05-19T04:44:09.337Z,14.7531
2023-05-19T04:45:10.516Z,14.7685
2023-05-19T04:46:13.414Z,14.7955
2023-05-19T04:47:13.593Z,14.8194
2023-05-19T04:48:14.984Z,14.8302
2023-05-19T04:49:16.293Z,14.8531
2023-05-19T04:50:17.750Z,14.8643
2023-05-19T04:51:19.177Z,14.8709
2023-05-19T04:52:20.624Z,14.8847
2023-05-19T04:53:22.018Z,14.9032
2023-05-19T04:54:23.348Z,14.9211
2023-05-19T04:55:24.800Z,14.9391
2023-05-19T04:56:26.331Z,14.9531
2023-05-19T04:57:27.708Z,14.9857
2023-05-19T04:58:29.118Z,15.0136
2023-05-19T04:59:30.558Z,15.0339
2023-05-19T05:00:32.111Z,15.0458
2023-05-19T05:01:33.362Z,15.0735
2023-05-19T05:02:34.930Z,15.0967
2023-05-19T05:03:36.211Z,15.1330
2023-05-19T05:04:37.717Z,15.1529
2023-05-19T05:05:39.025Z,15.1702
2023-05-19T05:06:40.546Z,15.2004
2023-05-19T05:07:41.937Z,15.2263
2023-05-19T05:08:43.313Z,15.2317
2023-05-19T05:09:44.796Z,15.2490
2023-05-19T05:10:46.175Z,15.2612
2023-05-19T05:11:47.590Z,15.2735
2023-05-19T05:12:49.005Z,15.2885
2023-05-19T05:13:50.404Z,15.2991
2023-05-19T05:14:51.796Z,15.3150
2023-05-19T05:15:53.166Z,15.3202
2023-05-19T05:16:54.761Z,15.3341
2023-05-19T05:17:56.207Z,15.3493
2023-05-19T05:18:57.640Z,15.3576
2023-05-19T05:19:59.016Z,15.3686
2023-05-19T05:21:00.347Z,15.3734
2023-05-19T05:22:01.812Z,15.3928
2023-05-19T05:23:03.225Z,15.4122
2023-05-19T05:24:04.657Z,15.4300
2023-05-19T05:25:06.010Z,15.4449
2023-05-19T05:26:07.537Z,15.4669
2023-05-19T05:27:08.898Z,15.4993
2023-05-19T05:28:10.380Z,15.5301
2023-05-19T05:29:11.747Z,15.5602
2023-05-19T05:30:13.242Z,15.5818
2023-05-19T05:31:14.565Z,15.6041
2023-05-19T05:32:16.104Z,15.6256
2023-05-19T05:33:17.626Z,15.6503
2023-05-19T05:34:18.895Z,15.6647
2023-05-19T05:35:20.397Z,15.6793
2023-05-19T05:36:21.740Z,15.6900
2023-05-19T05:37:23.174Z,15.7117
2023-05-19T05:38:24.615Z,15.7345
2023-05-19T05:39:25.995Z,15.7624
2023-05-19T05:40:27.428Z,15.7730
2023-05-19T05:41:28.801Z,15.7826
2023-05-19T05:42:30.388Z,15.7888
2023-05-19T05:43:31.737Z,15.8046
2023-05-19T05:44:33.128Z,15.8222
2023-05-19T05:45:34.711Z,15.8411
2023-05-19T05:46:35.865Z,15.8655
2023-05-19T05:47:37.389Z,15.8955
2023-05-19T05:48:38.890Z,15.9164
2023-05-19T05:49:40.154Z,15.9242
2023-05-19T05:50:41.613Z,15.9374
2023-05-19T05:51:48.456Z,15.9529
2023-05-19T05:52:44.530Z,15.9613
2023-05-19T05:53:45.919Z,15.9567
2023-05-19T05:54:47.395Z,15.9662
2023-05-19T05:55:48.771Z,15.9947
2023-05-19T05:56:50.226Z,16.0270
2023-05-19T05:57:51.593Z,16.0635
2023-05-19T05:58:53.036Z,16.0883
2023-05-19T05:59:54.445Z,16.1082
2023-05-19T06:00:55.832Z,16.1213
2023-05-19T06:01:57.248Z,16.1382
2023-05-19T06:02:58.882Z,16.1481
2023-05-19T06:04:00.141Z,16.1671
2023-05-19T06:05:01.613Z,16.2223
2023-05-19T06:06:03.010Z,16.3628
2023-05-19T06:07:04.337Z,16.6646
2023-05-19T06:08:05.874Z,17.2180
2023-05-19T06:09:07.256Z,18.0039
2023-05-19T06:10:08.581Z,18.7725
2023-05-19T06:11:10.058Z,19.4109
2023-05-19T06:12:11.470Z,19.7650
2023-05-19T06:13:13.019Z,19.7903
2023-05-19T06:14:14.335Z,19.8501
2023-05-19T06:15:15.776Z,19.9914
2023-05-19T06:16:17.208Z,20.1814
2023-05-19T06:17:18.602Z,20.4144
2023-05-19T06:18:20.054Z,20.7005
2023-05-19T06:19:21.460Z,21.1047
2023-05-19T06:20:22.887Z,21.4403
2023-05-19T06:21:24.248Z,21.7318
2023-05-19T06:22:25.709Z,21.9108
2023-05-19T06:23:27.168Z,22.0998
2023-05-19T06:24:28.635Z,22.2641
2023-05-19T06:25:29.968Z,22.3869
2023-05-19T06:26:31.283Z,22.6243
2023-05-19T06:27:34.644Z,22.8292
2023-05-19T06:28:34.245Z,23.0515
2023-05-19T06:29:35.793Z,23.4755
2023-05-19T06:30:37.160Z,23.9028
2023-05-19T06:31:38.488Z,24.2355
2023-05-19T06:32:40.044Z,24.4318
2023-05-19T06:33:41.521Z,24.5657
2023-05-19T06:34:42.943Z,24.5263
2023-05-19T06:35:44.261Z,23.6435
2023-05-19T06:36:45.767Z,22.9955
2023-05-19T06:37:47.118Z,23.1318
2023-05-19T06:38:49.398Z,23.6183
2023-05-19T06:39:49.968Z,24.1032
2023-05-19T06:40:51.409Z,24.4325
2023-05-19T06:41:52.786Z,24.2101
2023-05-19T06:42:54.115Z,23.1828
2023-05-19T06:43:55.682Z,22.8377
2023-05-19T06:44:57.097Z,23.1973
2023-05-19T06:45:58.355Z,23.8050
2023-05-19T06:46:59.892Z,24.3037
2023-05-19T06:48:01.349Z,24.7032
2023-05-19T06:49:02.756Z,24.5465
2023-05-19T06:50:04.185Z,23.4475
2023-05-19T06:51:05.834Z,22.7774
2023-05-19T06:52:06.974Z,22.8306
2023-05-19T06:53:08.419Z,23.0553
2023-05-19T06:54:09.880Z,23.3422
2023-05-19T06:55:11.906Z,24.0336
2023-05-19T06:56:12.758Z,23.9319
2023-05-19T06:57:14.105Z,22.9699
2023-05-19T06:58:15.529Z,22.4608
2023-05-19T06:59:17.044Z,22.5616
2023-05-19T07:00:19.954Z,22.8829
2023-05-19T07:01:19.793Z,23.3385
2023-05-19T07:02:21.184Z,24.1004
2023-05-19T07:03:22.805Z,24.0315
2023-05-19T07:04:24.088Z,23.0955
2023-05-19T07:05:26.449Z,22.5668
2023-05-19T07:06:26.865Z,22.6655
2023-05-19T07:07:28.240Z,23.2094
2023-05-19T07:08:29.764Z,24.0348
2023-05-19T07:09:31.227Z,24.5983
2023-05-19T07:10:32.824Z,23.8185
2023-05-19T07:11:33.973Z,22.8232
2023-05-19T07:12:35.394Z,22.6330
2023-05-19T07:13:36.868Z,22.9517
2023-05-19T07:14:38.318Z,23.5948
2023-05-19T07:15:39.782Z,24.3067
2023-05-19T07:16:41.128Z,23.9082
2023-05-19T07:17:42.570Z,22.9075
2023-05-19T07:18:44.044Z,22.4764
2023-05-19T07:19:45.381Z,22.7587
2023-05-19T07:20:46.884Z,23.2306
2023-05-19T07:21:48.258Z,23.8569
2023-05-19T07:22:49.615Z,23.5987
2023-05-19T07:23:51.076Z,22.7353
2023-05-19T07:24:52.555Z,22.4483
2023-05-19T07:25:54.415Z,22.6563
2023-05-19T07:26:55.382Z,23.1976
2023-05-19T07:27:56.777Z,23.6619
2023-05-19T07:28:58.230Z,23.4932
2023-05-19T07:29:59.617Z,22.7465
2023-05-19T07:31:01.187Z,22.3987
2023-05-19T07:32:02.567Z,22.4457
2023-05-19T07:33:03.919Z,22.9449
2023-05-19T07:34:05.330Z,23.5042
2023-05-19T07:35:06.688Z,23.6316
2023-05-19T07:36:08.210Z,23.1836
2023-05-19T07:37:09.512Z,22.7586
2023-05-19T07:38:11.091Z,22.9461
2023-05-19T07:39:12.433Z,23.4466
2023-05-19T07:40:13.865Z,23.9565
2023-05-19T07:41:15.333Z,23.7993
2023-05-19T07:42:16.642Z,22.8745
2023-05-19T07:43:17.987Z,22.3348
2023-05-19T07:44:19.538Z,22.2728
2023-05-19T07:45:21.008Z,22.5749
2023-05-19T07:46:22.550Z,23.1038
